Time;durP1;ratioP1;P1;durP2;ratioP2;P2;SDS_P1;SDS_P2;PMS_P1;PMS_P2;Temp;Humidity;BMP_temperature;BMP_pressure;BME280_temperature;BME280_humidity;BME280_pressure;Samples;Min_cycle;Max_cycle;Signal;HPM_P1;HPM_P2
2023/08/19 00:01:10;;;;;;;21.60;5.90;;;;;;;21.42;63.66;101417.64;107242;1257;108694;-64
2023/08/19 00:03:39;;;;;;;9.10;3.90;;;;;;;21.40;63.58;101415.96;107262;1260;96491;-66
2023/08/19 00:06:10;;;;;;;11.30;4.10;;;;;;;21.37;63.66;101417.66;107248;1260;96581;-66
2023/08/19 00:08:39;;;;;;;17.40;3.60;;;;;;;21.35;63.50;101418.77;107174;1257;109505;-66
2023/08/19 00:11:07;;;;;;;20.30;4.10;;;;;;;21.30;63.33;101421.77;107221;1257;109375;-65
2023/08/19 00:13:35;;;;;;;15.00;4.30;;;;;;;21.24;63.46;101419.65;107231;1258;108179;-65
2023/08/19 00:16:04;;;;;;;9.90;4.00;;;;;;;21.18;63.45;101421.79;107284;1260;96501;-66
2023/08/19 00:18:32;;;;;;;14.60;3.90;;;;;;;21.14;63.33;101427.31;107224;1258;96360;-65
2023/08/19 00:21:01;;;;;;;13.80;4.10;;;;;;;21.14;63.36;101428.83;107282;1260;109957;-66
2023/08/19 00:23:29;;;;;;;14.30;3.90;;;;;;;21.12;63.70;101426.02;107366;1260;109658;-65
2023/08/19 00:25:57;;;;;;;14.20;4.60;;;;;;;21.07;63.94;101428.73;107375;1258;109365;-66
2023/08/19 00:28:26;;;;;;;9.80;4.40;;;;;;;21.02;63.84;101427.78;107492;1255;96484;-66
2023/08/19 00:30:54;;;;;;;12.50;4.00;;;;;;;20.95;63.50;101430.20;107298;1254;97048;-66
2023/08/19 00:33:24;;;;;;;11.20;4.30;;;;;;;20.90;63.36;101425.72;107370;1260;109669;-65
2023/08/19 00:35:53;;;;;;;23.30;4.10;;;;;;;20.87;63.15;101423.02;107382;1260;109661;-65
2023/08/19 00:38:22;;;;;;;13.50;4.20;;;;;;;20.85;63.23;101415.48;107219;1260;108694;-65
2023/08/19 00:40:50;;;;;;;14.10;4.40;;;;;;;20.83;63.19;101413.48;107460;1254;96477;-65
2023/08/19 00:43:19;;;;;;;11.60;3.70;;;;;;;20.82;63.25;101412.65;107240;1254;96994;-64
2023/08/19 00:45:51;;;;;;;11.60;4.30;;;;;;;20.80;63.16;101416.37;107168;1258;109642;-66
2023/08/19 00:48:21;;;;;;;11.30;3.70;;;;;;;20.79;63.17;101417.58;107281;1260;108630;-65
2023/08/19 00:50:50;;;;;;;9.50;3.50;;;;;;;20.78;63.20;101417.32;107366;1255;107993;-66
2023/08/19 00:53:19;;;;;;;12.50;3.50;;;;;;;20.78;63.12;101415.44;107337;1260;97624;-65
2023/08/19 00:55:47;;;;;;;10.90;4.00;;;;;;;20.77;63.08;101414.21;107379;1259;96379;-66
2023/08/19 00:58:15;;;;;;;12.40;3.40;;;;;;;20.76;63.05;101415.94;107386;1260;110968;-66
2023/08/19 01:00:45;;;;;;;11.10;3.90;;;;;;;20.77;63.20;101417.05;107107;1263;116808;-66
2023/08/19 01:03:13;;;;;;;7.80;3.70;;;;;;;20.77;63.34;101418.92;107348;1260;107320;-66
2023/08/19 01:06:22;;;;;;;10.20;4.10;;;;;;;20.76;63.27;101419.05;107383;1254;96478;-65
2023/08/19 01:09:20;;;;;;;12.90;4.20;;;;;;;20.75;63.33;101416.77;107392;1258;96558;-67
2023/08/19 01:12:06;;;;;;;15.10;4.10;;;;;;;20.74;63.65;101419.32;107190;1254;111035;-66
2023/08/19 01:14:37;;;;;;;17.00;4.50;;;;;;;20.73;63.62;101426.11;107392;1254;109421;-65
2023/08/19 01:17:09;;;;;;;21.50;4.50;;;;;;;20.72;63.71;101430.98;107065;1260;108192;-66
2023/08/19 01:19:41;;;;;;;13.50;4.40;;;;;;;20.67;63.82;101430.28;107290;1256;96468;-67
2023/08/19 01:22:16;;;;;;;8.10;3.80;;;;;;;20.64;63.88;101430.87;107396;1257;96497;-66
2023/08/19 01:24:46;;;;;;;13.00;3.70;;;;;;;20.62;64.73;101429.27;107258;1254;115593;-65
2023/08/19 01:27:23;;;;;;;17.70;3.80;;;;;;;20.57;64.85;101435.69;107380;1254;108587;-65
2023/08/19 01:29:51;;;;;;;21.10;4.50;;;;;;;20.53;64.61;101434.35;107404;1254;108431;-65
2023/08/19 01:32:21;;;;;;;13.50;4.50;;;;;;;20.51;64.60;101431.48;107366;1254;96369;-66
2023/08/19 01:34:50;;;;;;;16.70;4.20;;;;;;;20.46;64.80;101431.86;107428;1254;96362;-65
2023/08/19 01:37:28;;;;;;;22.10;4.40;;;;;;;20.41;64.83;101433.92;107217;1260;109340;-67
2023/08/19 01:39:59;;;;;;;16.40;3.90;;;;;;;20.38;64.71;101433.08;107410;1254;108921;-65
2023/08/19 01:42:29;;;;;;;9.10;3.80;;;;;;;20.35;64.67;101435.58;107269;1257;106959;-68
2023/08/19 01:44:58;;;;;;;22.80;4.10;;;;;;;20.32;64.60;101441.01;107390;1254;96594;-67
2023/08/19 01:47:27;;;;;;;11.00;3.50;;;;;;;20.32;64.56;101441.34;107256;1258;96959;-65
2023/08/19 01:49:57;;;;;;;14.80;3.90;;;;;;;20.32;64.54;101438.73;107385;1260;109894;-66
2023/08/19 01:52:25;;;;;;;13.90;3.70;;;;;;;20.30;64.85;101434.58;107295;1258;109374;-65
2023/08/19 01:54:54;;;;;;;15.60;4.10;;;;;;;20.28;64.68;101435.85;107346;1260;108244;-66
2023/08/19 01:57:25;;;;;;;16.30;4.20;;;;;;;20.28;64.92;101436.45;107327;1254;96472;-66
2023/08/19 01:59:55;;;;;;;9.90;3.80;;;;;;;20.26;64.90;101431.23;107384;1257;96446;-67
2023/08/19 02:02:23;;;;;;;13.80;4.10;;;;;;;20.26;64.92;101430.10;107383;1254;111011;-66
2023/08/19 02:04:52;;;;;;;16.40;4.00;;;;;;;20.26;64.91;101431.91;107300;1254;109003;-66
2023/08/19 02:07:20;;;;;;;11.90;3.90;;;;;;;20.24;65.21;101431.61;107264;1260;107690;-66
2023/08/19 02:09:48;;;;;;;12.50;3.60;;;;;;;20.22;65.08;101430.98;107394;1257;96487;-66
2023/08/19 02:12:16;;;;;;;10.80;3.90;;;;;;;20.20;65.36;101430.88;107404;1254;96490;-68
2023/08/19 02:14:45;;;;;;;12.50;4.00;;;;;;;20.17;65.36;101427.17;107358;1254;110679;-65
2023/08/19 02:17:13;;;;;;;13.00;4.50;;;;;;;20.15;65.52;101420.54;107377;1254;109265;-66
2023/08/19 02:19:42;;;;;;;13.30;4.10;;;;;;;20.14;65.46;101421.86;107377;1255;108207;-66
2023/08/19 02:22:10;;;;;;;12.10;4.10;;;;;;;20.15;65.52;101424.49;107383;1259;96475;-65
2023/08/19 02:24:38;;;;;;;12.60;4.20;;;;;;;20.16;65.66;101421.69;107384;1254;96565;-65
2023/08/19 02:27:06;;;;;;;14.10;5.80;;;;;;;20.18;65.98;101427.54;107197;1257;109817;-65
2023/08/19 02:29:35;;;;;;;8.70;4.90;;;;;;;20.22;66.26;101431.50;107358;1260;109657;-65
2023/08/19 02:32:03;;;;;;;10.20;4.20;;;;;;;20.21;66.14;101431.61;107355;1254;107690;-65
2023/08/19 02:34:32;;;;;;;8.70;3.50;;;;;;;20.21;66.18;101434.42;107383;1254;96536;-65
2023/08/19 02:37:00;;;;;;;7.90;4.40;;;;;;;20.24;66.21;101436.41;107243;1254;96377;-66
2023/08/19 02:39:29;;;;;;;14.20;6.30;;;;;;;20.26;66.37;101440.27;107429;1257;109882;-66
2023/08/19 02:41:57;;;;;;;14.00;4.90;;;;;;;20.27;66.41;101433.98;107420;1254;109628;-66
2023/08/19 02:44:25;;;;;;;14.00;4.00;;;;;;;20.26;66.35;101440.45;107398;1254;108642;-65
2023/08/19 02:46:54;;;;;;;11.50;4.80;;;;;;;20.28;66.62;101437.20;107431;1254;96510;-67
2023/08/19 02:49:23;;;;;;;12.00;4.50;;;;;;;20.24;66.67;101435.98;107294;1254;96364;-66
2023/08/19 02:51:51;;;;;;;15.00;4.50;;;;;;;20.19;66.97;101434.57;107313;1254;110523;-67
2023/08/19 02:54:19;;;;;;;11.30;4.50;;;;;;;20.09;66.88;101434.34;107354;1254;109497;-66
2023/08/19 02:56:47;;;;;;;17.10;4.20;;;;;;;20.05;66.92;101432.16;107394;1254;107620;-67
2023/08/19 02:59:16;;;;;;;18.20;4.60;;;;;;;20.04;66.97;101440.94;107413;1254;96472;-66
2023/08/19 03:01:44;;;;;;;15.10;4.80;;;;;;;20.03;66.96;101441.46;107444;1255;96394;-66
2023/08/19 03:04:12;;;;;;;11.70;4.20;;;;;;;20.01;66.98;101439.64;107399;1253;110176;-66
2023/08/19 03:06:41;;;;;;;13.10;3.70;;;;;;;20.01;67.15;101437.95;107377;1254;109807;-67
2023/08/19 03:09:09;;;;;;;13.70;4.40;;;;;;;20.00;67.48;101438.41;107416;1254;108781;-66
2023/08/19 03:11:39;;;;;;;15.20;4.00;;;;;;;20.00;67.74;101436.66;107400;1254;96478;-66
2023/08/19 03:14:08;;;;;;;15.10;4.40;;;;;;;20.00;67.76;101438.48;107418;1254;96513;-66
2023/08/19 03:16:37;;;;;;;10.60;4.20;;;;;;;19.97;67.82;101438.80;107519;1257;111183;-66
2023/08/19 03:19:06;;;;;;;11.90;3.90;;;;;;;19.94;67.73;101437.36;107410;1254;110115;-66
2023/08/19 03:21:35;;;;;;;13.80;4.10;;;;;;;19.93;67.63;101441.13;107412;1254;108261;-66
2023/08/19 03:24:03;;;;;;;5.80;3.80;;;;;;;19.92;67.71;101445.73;107400;1254;96458;-66
2023/08/19 03:26:32;;;;;;;10.50;4.30;;;;;;;19.89;67.66;101447.02;107258;1257;97002;-67
2023/08/19 03:29:00;;;;;;;8.30;3.70;;;;;;;19.86;67.80;101447.58;107237;1257;110116;-66
2023/08/19 03:31:29;;;;;;;14.90;4.20;;;;;;;19.85;68.13;101449.16;107389;1254;111657;-66
2023/08/19 03:33:58;;;;;;;8.90;3.90;;;;;;;19.87;67.91;101448.37;107443;1254;106638;-66
2023/08/19 03:36:27;;;;;;;9.30;4.30;;;;;;;19.92;68.16;101446.93;107358;1254;96543;-65
2023/08/19 03:38:56;;;;;;;7.40;3.50;;;;;;;19.96;68.12;101441.23;107286;1255;96512;-65
2023/08/19 03:41:24;;;;;;;12.40;3.60;;;;;;;20.01;68.04;101441.61;107236;1254;110437;-66
2023/08/19 03:43:53;;;;;;;16.40;5.00;;;;;;;20.03;67.91;101443.23;107250;1254;110292;-65
2023/08/19 03:46:22;;;;;;;22.30;4.50;;;;;;;20.06;67.91;101442.02;107301;1254;108016;-64
2023/08/19 03:48:50;;;;;;;15.90;3.50;;;;;;;20.07;68.00;101447.70;107270;1254;96474;-65
2023/08/19 03:51:18;;;;;;;13.70;3.90;;;;;;;20.05;68.06;101447.73;107147;1257;96376;-65
2023/08/19 03:53:46;;;;;;;13.30;3.80;;;;;;;20.04;68.23;101444.97;107424;1254;109725;-67
2023/08/19 03:56:15;;;;;;;8.70;4.20;;;;;;;20.03;68.13;101444.88;107381;1254;109242;-66
2023/08/19 03:58:46;;;;;;;11.50;4.10;;;;;;;20.06;68.15;101442.19;107391;1254;108759;-65
2023/08/19 04:01:14;;;;;;;15.20;4.40;;;;;;;20.08;68.06;101441.55;107129;1257;96504;-65
2023/08/19 04:03:44;;;;;;;8.30;3.70;;;;;;;20.09;67.97;101436.18;107400;1254;96439;-66
2023/08/19 04:06:13;;;;;;;16.20;4.00;;;;;;;20.10;67.88;101436.80;107411;1254;109722;-66
2023/08/19 04:08:41;;;;;;;10.70;4.00;;;;;;;20.11;67.84;101442.59;107401;1254;110710;-65
2023/08/19 04:11:09;;;;;;;15.50;3.50;;;;;;;20.13;68.03;101436.05;107389;1254;108039;-66
2023/08/19 04:13:37;;;;;;;10.50;3.90;;;;;;;20.16;68.18;101439.69;107363;1254;96492;-67
2023/08/19 04:16:07;;;;;;;9.60;4.10;;;;;;;20.18;68.11;101443.95;107406;1254;96565;-66
2023/08/19 04:18:36;;;;;;;17.50;4.10;;;;;;;20.21;68.14;101445.86;107200;1257;109393;-65
2023/08/19 04:21:05;;;;;;;13.10;4.20;;;;;;;20.22;68.07;101447.73;107403;1254;109242;-64
2023/08/19 04:23:33;;;;;;;10.80;4.50;;;;;;;20.24;68.06;101443.14;107310;1254;107770;-66
2023/08/19 04:26:02;;;;;;;16.40;5.30;;;;;;;20.27;68.06;101447.47;107403;1254;96465;-66
2023/08/19 04:28:32;;;;;;;19.50;5.10;;;;;;;20.29;68.01;101451.02;107272;1256;96480;-65
2023/08/19 04:31:06;;;;;;;12.10;4.80;;;;;;;20.35;68.13;101452.77;107253;1257;110815;-66
2023/08/19 04:33:56;;;;;;;17.10;4.90;;;;;;;20.42;68.08;101453.02;107392;1257;109689;-66
2023/08/19 04:36:26;;;;;;;12.50;5.00;;;;;;;20.48;68.10;101451.02;107428;1254;108215;-66
2023/08/19 04:38:56;;;;;;;24.00;6.00;;;;;;;20.53;67.91;101447.23;107430;1254;96503;-65
2023/08/19 04:41:25;;;;;;;19.00;5.40;;;;;;;20.58;67.90;101446.10;107378;1254;96369;-66
2023/08/19 04:43:54;;;;;;;10.70;4.90;;;;;;;20.63;67.82;101445.73;107424;1255;109113;-66
2023/08/19 04:46:25;;;;;;;16.20;6.00;;;;;;;20.67;67.74;101451.41;107412;1254;109728;-67
2023/08/19 04:48:54;;;;;;;11.80;5.20;;;;;;;20.72;67.84;101450.09;107298;1254;107700;-66
2023/08/19 04:51:23;;;;;;;10.80;5.40;;;;;;;20.78;67.70;101450.91;107372;1254;96480;-65
2023/08/19 04:53:52;;;;;;;12.80;5.80;;;;;;;20.81;67.83;101452.15;107374;1257;96581;-66
2023/08/19 04:56:20;;;;;;;18.00;5.40;;;;;;;20.85;67.87;101453.80;107327;1254;110632;-66
2023/08/19 04:58:48;;;;;;;13.70;6.60;;;;;;;20.92;67.85;101457.05;107248;1253;109969;-65
2023/08/19 05:01:17;;;;;;;22.20;10.00;;;;;;;21.00;67.85;101457.91;107351;1254;108488;-66
2023/08/19 05:03:45;;;;;;;31.70;11.00;;;;;;;21.07;67.71;101459.55;107223;1258;96504;-66
2023/08/19 05:06:14;;;;;;;20.30;8.70;;;;;;;21.15;67.41;101458.17;107351;1257;96471;-66
2023/08/19 05:08:43;;;;;;;21.30;8.30;;;;;;;21.25;67.34;101462.30;107366;1254;115008;-66
2023/08/19 05:11:13;;;;;;;24.30;7.30;;;;;;;21.36;67.20;101461.14;107274;1257;110348;-66
2023/08/19 05:13:42;;;;;;;31.20;8.60;;;;;;;21.45;66.85;101462.17;107356;1254;107838;-66
2023/08/19 05:16:13;;;;;;;28.00;9.80;;;;;;;21.53;66.52;101459.75;107403;1254;96557;-66
2023/08/19 05:18:41;;;;;;;28.60;8.50;;;;;;;21.60;66.04;101460.54;107369;1254;96503;-67
2023/08/19 05:21:10;;;;;;;27.20;8.50;;;;;;;21.68;65.83;101462.82;107339;1254;109966;-65
2023/08/19 05:23:39;;;;;;;22.60;7.60;;;;;;;21.77;65.67;101465.56;107392;1254;109533;-66
2023/08/19 05:26:07;;;;;;;20.70;7.90;;;;;;;21.85;65.31;101468.77;107438;1254;107966;-67
2023/08/19 05:28:35;;;;;;;39.50;10.60;;;;;;;21.91;64.96;101469.59;107372;1257;96480;-67
2023/08/19 05:31:04;;;;;;;24.00;7.80;;;;;;;21.99;64.38;101470.23;107368;1254;97012;-67
2023/08/19 05:33:32;;;;;;;33.40;7.50;;;;;;;22.05;64.16;101476.73;107391;1254;110740;-67
2023/08/19 05:36:01;;;;;;;23.50;7.30;;;;;;;22.12;63.92;101478.27;107367;1254;110906;-67
2023/08/19 05:38:29;;;;;;;22.70;7.40;;;;;;;22.17;63.40;101479.33;107391;1254;107722;-67
2023/08/19 05:40:57;;;;;;;27.00;7.10;;;;;;;22.22;63.04;101481.23;107295;1257;96491;-66
2023/08/19 05:43:26;;;;;;;24.80;8.10;;;;;;;22.26;62.63;101479.46;107387;1254;96460;-68
2023/08/19 05:45:54;;;;;;;27.90;8.10;;;;;;;22.30;62.42;101479.11;107403;1254;110620;-66
2023/08/19 05:48:23;;;;;;;21.30;7.70;;;;;;;22.35;62.22;101479.45;107398;1254;109037;-65
2023/08/19 05:50:51;;;;;;;35.60;7.60;;;;;;;22.40;62.27;101481.67;107344;1255;108309;-66
2023/08/19 05:53:20;;;;;;;21.80;7.20;;;;;;;22.45;62.08;101483.12;107339;1254;96494;-65
2023/08/19 05:55:48;;;;;;;24.70;7.00;;;;;;;22.50;62.06;101481.98;107355;1253;97009;-66
2023/08/19 05:58:16;;;;;;;35.20;8.60;;;;;;;22.55;61.78;101479.35;107253;1257;110364;-66
2023/08/19 06:00:44;;;;;;;22.40;7.90;;;;;;;22.59;61.50;101479.52;107371;1256;108580;-66
2023/08/19 06:03:13;;;;;;;19.10;7.70;;;;;;;22.66;61.59;101481.12;107312;1257;108466;-66
2023/08/19 06:05:42;;;;;;;28.40;7.20;;;;;;;22.72;61.57;101481.80;107407;1257;97105;-69
2023/08/19 06:08:12;;;;;;;25.10;7.30;;;;;;;22.79;61.38;101482.78;107428;1254;97018;-67
2023/08/19 06:10:43;;;;;;;26.30;7.20;;;;;;;22.85;60.90;101479.58;107324;1257;111274;-66
2023/08/19 06:13:12;;;;;;;18.60;7.00;;;;;;;22.92;60.35;101487.44;107399;1257;110604;-66
2023/08/19 06:15:40;;;;;;;25.30;7.00;;;;;;;23.01;59.75;101489.77;107451;1254;107080;-67
2023/08/19 06:18:09;;;;;;;20.90;6.90;;;;;;;23.09;59.63;101490.20;107385;1254;96507;-66
2023/08/19 06:20:37;;;;;;;23.80;6.90;;;;;;;23.18;59.04;101490.92;107353;1254;97009;-67
2023/08/19 06:23:05;;;;;;;27.20;7.20;;;;;;;23.26;58.78;101491.33;107433;1257;111117;-65
2023/08/19 06:25:34;;;;;;;35.20;7.70;;;;;;;23.36;58.32;101489.98;107428;1254;109720;-66
2023/08/19 06:28:03;;;;;;;24.30;7.30;;;;;;;23.47;58.15;101490.41;107375;1254;108309;-68
2023/08/19 06:30:31;;;;;;;26.70;7.50;;;;;;;23.56;58.02;101488.98;107453;1254;96465;-66
2023/08/19 06:33:00;;;;;;;27.00;6.90;;;;;;;23.68;57.74;101493.58;107515;1254;96477;-67
2023/08/19 06:35:29;;;;;;;22.20;7.10;;;;;;;23.78;57.38;101491.78;107334;1254;111106;-66
2023/08/19 06:38:03;;;;;;;26.30;7.20;;;;;;;23.89;57.24;101496.17;107471;1254;109026;-66
2023/08/19 06:40:34;;;;;;;22.50;7.40;;;;;;;24.00;57.02;101499.15;107462;1254;107635;-67
2023/08/19 06:43:06;;;;;;;31.70;11.10;;;;;;;24.10;57.03;101500.98;107440;1254;96584;-66
2023/08/19 06:45:35;;;;;;;34.40;7.30;;;;;;;24.22;56.86;101501.85;107432;1254;96468;-67
2023/08/19 06:48:06;;;;;;;17.60;7.20;;;;;;;24.33;56.36;101506.30;107419;1253;110907;-67
2023/08/19 06:50:35;;;;;;;18.00;6.90;;;;;;;24.46;55.72;101510.25;107412;1254;109078;-66
2023/08/19 06:53:09;;;;;;;33.80;6.70;;;;;;;24.59;55.66;101511.41;107437;1254;107598;-66
2023/08/19 06:55:41;;;;;;;22.30;6.10;;;;;;;24.72;54.71;101511.72;107380;1253;96538;-66
2023/08/19 06:58:19;;;;;;;16.50;6.70;;;;;;;24.83;54.21;101512.92;107417;1254;96487;-66
2023/08/19 07:00:51;;;;;;;20.70;6.20;;;;;;;24.97;53.93;101517.73;107453;1254;110741;-67
2023/08/19 07:03:20;;;;;;;21.60;7.00;;;;;;;25.12;53.65;101515.92;107408;1254;109114;-66
2023/08/19 07:05:50;;;;;;;14.60;5.80;;;;;;;25.25;53.09;101520.16;107410;1254;107257;-67
2023/08/19 07:08:19;;;;;;;11.00;5.70;;;;;;;25.39;53.19;101513.57;107360;1254;96447;-66
2023/08/19 07:10:48;;;;;;;29.10;6.10;;;;;;;25.52;52.55;101512.52;107370;1257;96376;-66
2023/08/19 07:13:17;;;;;;;16.70;6.30;;;;;;;25.64;52.18;101511.58;107371;1253;108829;-66
2023/08/19 07:15:51;;;;;;;15.80;5.60;;;;;;;25.78;50.74;101515.70;107371;1254;108669;-67
2023/08/19 07:18:21;;;;;;;19.00;6.40;;;;;;;25.90;50.78;101511.73;107382;1255;107524;-66
2023/08/19 07:20:52;;;;;;;12.10;5.70;;;;;;;26.03;50.80;101509.68;107349;1254;96488;-66
2023/08/19 07:23:23;;;;;;;24.90;6.20;;;;;;;26.14;50.84;101505.77;107416;1257;96471;-66
2023/08/19 07:25:52;;;;;;;16.50;6.20;;;;;;;26.26;50.38;101506.11;107450;1254;109636;-67
2023/08/19 07:28:26;;;;;;;13.60;6.80;;;;;;;26.37;49.82;101505.02;107398;1254;111024;-65
2023/08/19 07:30:55;;;;;;;18.10;7.00;;;;;;;26.47;50.00;101503.74;107399;1254;107790;-66
2023/08/19 07:33:23;;;;;;;17.00;6.70;;;;;;;26.58;49.95;101501.78;107441;1254;96487;-67
2023/08/19 07:35:52;;;;;;;13.30;6.00;;;;;;;26.69;49.39;101502.92;107431;1257;97016;-67
2023/08/19 07:38:21;;;;;;;11.70;5.10;;;;;;;26.82;48.77;101498.27;107380;1254;108441;-66
2023/08/19 07:40:49;;;;;;;21.60;6.00;;;;;;;26.94;48.47;101497.27;107448;1257;109665;-67
2023/08/19 07:43:17;;;;;;;11.50;5.70;;;;;;;27.08;48.47;101500.77;107387;1254;107420;-65
2023/08/19 07:45:45;;;;;;;15.10;5.50;;;;;;;27.20;47.82;101498.98;107404;1257;96503;-67
2023/08/19 07:48:14;;;;;;;14.30;4.50;;;;;;;27.32;47.31;101496.46;107367;1255;96427;-67
2023/08/19 07:50:43;;;;;;;12.70;4.20;;;;;;;27.45;46.96;101497.86;107403;1254;110273;-66
2023/08/19 07:53:12;;;;;;;16.80;4.40;;;;;;;27.59;47.05;101491.95;107440;1254;109652;-67
2023/08/19 07:55:41;;;;;;;12.50;3.80;;;;;;;27.72;46.75;101495.98;107361;1254;109785;-65
2023/08/19 07:58:09;;;;;;;14.40;4.30;;;;;;;27.85;45.86;101494.88;107335;1254;96446;-66
2023/08/19 08:00:38;;;;;;;10.40;4.20;;;;;;;27.96;45.13;101493.05;107376;1254;97076;-67
2023/08/19 08:03:06;;;;;;;14.80;8.00;;;;;;;28.10;45.49;101493.64;107412;1257;110039;-66
2023/08/19 08:05:35;;;;;;;14.50;4.10;;;;;;;28.23;44.32;101495.18;107374;1254;109228;-66
2023/08/19 08:08:04;;;;;;;12.70;4.10;;;;;;;28.39;43.57;101498.80;107395;1257;108514;-66
2023/08/19 08:10:32;;;;;;;12.20;4.00;;;;;;;28.53;43.99;101500.42;107378;1254;96580;-67
2023/08/19 08:13:00;;;;;;;16.00;4.00;;;;;;;28.68;43.58;101496.83;107407;1257;96581;-67
2023/08/19 08:15:29;;;;;;;10.50;4.00;;;;;;;28.82;42.75;101494.04;107346;1254;109568;-67
2023/08/19 08:17:57;;;;;;;8.40;3.30;;;;;;;28.93;42.42;101490.98;107423;1254;109112;-65
2023/08/19 08:20:25;;;;;;;11.10;3.30;;;;;;;29.05;42.31;101492.63;107366;1254;108312;-66
2023/08/19 08:22:54;;;;;;;15.20;3.10;;;;;;;29.18;42.22;101490.41;107395;1254;96533;-66
2023/08/19 08:25:23;;;;;;;15.80;3.40;;;;;;;29.33;41.78;101488.92;107405;1254;96511;-67
2023/08/19 08:27:51;;;;;;;14.60;4.10;;;;;;;29.47;40.86;101481.46;107389;1254;110505;-66
2023/08/19 08:30:19;;;;;;;13.20;3.60;;;;;;;29.59;41.09;101482.64;107288;1254;110183;-66
2023/08/19 08:32:48;;;;;;;8.20;3.50;;;;;;;29.74;41.36;101482.93;107393;1254;108837;-67
2023/08/19 08:35:16;;;;;;;8.30;3.20;;;;;;;29.90;40.93;101481.06;107390;1254;96408;-67
2023/08/19 08:37:44;;;;;;;12.50;3.30;;;;;;;30.06;40.39;101480.83;107391;1254;96589;-68
2023/08/19 08:40:13;;;;;;;6.90;3.00;;;;;;;30.23;40.22;101481.66;107418;1253;109714;-67
2023/08/19 08:42:43;;;;;;;8.90;3.50;;;;;;;30.39;39.38;101480.82;107393;1254;110184;-67
2023/08/19 08:45:12;;;;;;;5.40;2.50;;;;;;;30.55;39.03;101477.11;107393;1257;107557;-68
2023/08/19 08:47:41;;;;;;;8.10;2.80;;;;;;;30.69;38.31;101478.89;107420;1255;96532;-65
2023/08/19 08:50:11;;;;;;;6.50;3.10;;;;;;;30.82;37.57;101475.62;107420;1254;96503;-66
2023/08/19 08:52:40;;;;;;;9.20;2.80;;;;;;;30.97;37.43;101472.84;107336;1254;109544;-65
2023/08/19 08:55:10;;;;;;;13.70;3.00;;;;;;;31.13;37.39;101475.67;107353;1254;109318;-67
2023/08/19 08:57:38;;;;;;;11.70;2.90;;;;;;;31.28;36.61;101470.65;107339;1254;108493;-67
2023/08/19 09:00:08;;;;;;;10.90;3.00;;;;;;;31.45;37.00;101471.95;107436;1254;96571;-67
2023/08/19 09:02:38;;;;;;;7.90;3.20;;;;;;;31.69;36.19;101470.34;107383;1254;96481;-67
2023/08/19 09:05:08;;;;;;;15.90;2.60;;;;;;;31.90;35.48;101466.52;107409;1254;110345;-67
2023/08/19 09:07:41;;;;;;;9.30;2.30;;;;;;;32.09;33.47;101467.74;107432;1254;110203;-67
2023/08/19 09:10:14;;;;;;;5.20;2.30;;;;;;;32.25;32.92;101463.79;107361;1256;108124;-68
2023/08/19 09:12:45;;;;;;;6.10;2.20;;;;;;;32.43;32.95;101463.59;107386;1254;96494;-65
2023/08/19 09:15:17;;;;;;;4.10;2.10;;;;;;;32.65;32.28;101460.40;107361;1254;97093;-65
2023/08/19 09:17:45;;;;;;;16.40;2.90;;;;;;;32.88;33.11;101454.05;107391;1254;109698;-66
2023/08/19 09:20:18;;;;;;;9.00;2.30;;;;;;;33.15;32.34;101456.12;107381;1257;110080;-66
2023/08/19 09:22:49;;;;;;;6.90;1.90;;;;;;;33.39;31.61;101456.73;107336;1257;108105;-67
2023/08/19 09:25:17;;;;;;;7.70;2.00;;;;;;;33.61;29.90;101460.42;107369;1254;96506;-66
2023/08/19 09:27:51;;;;;;;5.00;2.40;;;;;;;33.85;29.64;101453.66;107376;1255;96490;-67
2023/08/19 09:30:20;;;;;;;4.30;1.50;;;;;;;34.17;29.74;101454.86;107326;1254;111228;-65
2023/08/19 09:32:48;;;;;;;7.60;1.80;;;;;;;34.54;29.46;101449.31;107357;1254;109867;-67
2023/08/19 09:35:16;;;;;;;4.40;2.10;;;;;;;35.00;29.61;101450.16;107266;1257;108841;-67
2023/08/19 09:37:45;;;;;;;6.70;2.00;;;;;;;35.43;28.29;101449.42;107359;1254;96472;-66
2023/08/19 09:40:21;;;;;;;5.90;1.80;;;;;;;35.77;27.67;101451.85;107344;1257;97083;-66
2023/08/19 09:42:49;;;;;;;10.10;1.80;;;;;;;36.21;27.29;101451.73;107350;1257;110691;-66
2023/08/19 09:45:19;;;;;;;6.70;1.80;;;;;;;36.72;26.64;101450.60;107364;1254;109886;-66
2023/08/19 09:47:49;;;;;;;14.80;2.30;;;;;;;37.21;25.36;101448.22;107314;1254;107181;-66
2023/08/19 09:50:21;;;;;;;8.40;2.40;;;;;;;37.77;25.37;101446.26;107375;1254;96491;-65
2023/08/19 09:52:57;;;;;;;7.20;1.70;;;;;;;38.38;24.90;101443.90;107404;1254;96469;-66
2023/08/19 09:55:28;;;;;;;4.70;1.90;;;;;;;38.81;24.83;101443.51;106908;1254;517185;-66
2023/08/19 09:57:56;;;;;;;9.70;2.30;;;;;;;38.96;24.02;101439.83;107366;1254;109987;-67
2023/08/19 10:00:25;;;;;;;4.80;1.80;;;;;;;39.29;23.97;101440.65;107354;1254;108634;-66
2023/08/19 10:02:54;;;;;;;8.20;1.80;;;;;;;39.36;23.37;101444.14;107433;1254;96485;-66
2023/08/19 10:05:26;;;;;;;6.50;1.60;;;;;;;39.07;23.93;101441.09;107408;1254;97025;-68
2023/08/19 10:08:03;;;;;;;6.80;1.70;;;;;;;38.47;24.34;101443.80;107384;1254;111133;-67
2023/08/19 10:10:33;;;;;;;4.90;1.80;;;;;;;38.06;23.67;101447.71;107343;1254;109837;-66
2023/08/19 10:13:03;;;;;;;13.80;1.80;;;;;;;37.79;24.32;101448.86;107392;1254;108595;-66
2023/08/19 10:15:33;;;;;;;11.70;2.00;;;;;;;38.05;22.88;101452.05;107253;1254;96655;-66
2023/08/19 10:18:09;;;;;;;10.80;1.80;;;;;;;38.13;23.26;101447.26;107395;1257;97070;-66
2023/08/19 10:20:39;;;;;;;5.80;1.70;;;;;;;38.58;24.01;101448.83;107348;1254;109174;-65
2023/08/19 10:23:10;;;;;;;6.90;1.50;;;;;;;39.11;23.51;101443.40;107261;1257;109362;-65
2023/08/19 10:25:43;;;;;;;12.40;1.60;;;;;;;39.75;23.47;101436.09;107331;1254;107557;-65
2023/08/19 10:28:13;;;;;;;6.40;1.50;;;;;;;40.37;22.38;101436.45;107320;1254;96487;-66
2023/08/19 10:30:42;;;;;;;15.70;2.00;;;;;;;40.89;22.30;101433.02;107351;1254;96587;-67
2023/08/19 10:33:36;;;;;;;4.80;1.80;;;;;;;41.33;21.49;101433.60;107338;1254;109735;-68
2023/08/19 10:36:06;;;;;;;5.50;2.00;;;;;;;41.63;20.56;101433.49;107442;1254;109848;-67
2023/08/19 10:39:07;;;;;;;7.00;1.80;;;;;;;41.96;20.47;101427.44;107432;1254;107413;-67
2023/08/19 10:41:38;;;;;;;8.60;1.70;;;;;;;42.54;20.28;101427.58;107410;1254;96567;-66
2023/08/19 10:44:11;;;;;;;18.30;2.50;;;;;;;42.95;20.17;101430.14;107372;1254;96485;-66
2023/08/19 10:46:41;;;;;;;3.70;1.70;;;;;;;43.34;19.21;101423.13;107425;1254;110525;-66
2023/08/19 10:49:15;;;;;;;5.10;1.60;;;;;;;43.75;19.11;101418.52;107350;1254;109813;-65
2023/08/19 10:51:57;;;;;;;12.00;1.70;;;;;;;44.17;19.18;101417.19;107252;1254;114140;-66
2023/08/19 10:54:43;;;;;;;3.30;1.60;;;;;;;44.45;18.25;101413.40;107300;1254;96478;-66
2023/08/19 10:57:15;;;;;;;10.30;1.70;;;;;;;44.69;18.47;101408.45;107275;1254;97035;-66
2023/08/19 10:59:47;;;;;;;2.90;1.50;;;;;;;45.01;18.19;101406.60;107349;1254;115754;-66
2023/08/19 11:02:16;;;;;;;6.90;1.80;;;;;;;45.32;18.27;101403.00;107281;1254;109421;-66
2023/08/19 11:04:47;;;;;;;7.60;2.10;;;;;;;45.60;17.41;101408.06;107268;1254;108688;-66
2023/08/19 11:07:17;;;;;;;10.50;1.50;;;;;;;45.66;16.96;101405.06;107304;1259;96484;-66
2023/08/19 11:09:48;;;;;;;2.00;1.20;;;;;;;45.47;16.99;101405.48;107339;1257;96392;-66
2023/08/19 11:12:21;;;;;;;2.50;1.10;;;;;;;45.33;16.43;101404.66;107328;1257;110717;-66
2023/08/19 11:14:50;;;;;;;6.10;1.50;;;;;;;45.10;16.72;101400.08;107266;1253;109300;-66
2023/08/19 11:17:31;;;;;;;7.50;1.60;;;;;;;45.06;16.93;101403.12;107291;1254;108183;-64
2023/08/19 11:20:09;;;;;;;3.90;1.50;;;;;;;45.09;17.20;101396.55;107374;1254;96445;-65